sensor_id;sensor_type;location;lat;lon;timestamp;temperature;humidity
52675;DHT22;38569;52.722;6.440;2023-05-20T00:01:02;10.60;99.90
52675;DHT22;38569;52.722;6.440;2023-05-20T00:03:27;10.60;99.90
52675;DHT22;38569;52.722;6.440;2023-05-20T00:05:54;10.60;99.90
52675;DHT22;38569;52.722;6.440;2023-05-20T00:08:19;10.60;99.90
52675;DHT22;38569;52.722;6.440;2023-05-20T00:10:45;10.60;99.90
52675;DHT22;38569;52.722;6.440;2023-05-20T00:13:11;10.50;99.90
52675;DHT22;38569;52.722;6.440;2023-05-20T00:15:37;10.50;99.90
52675;DHT22;38569;52.722;6.440;2023-05-20T00:18:03;10.50;99.90
52675;DHT22;38569;52.722;6.440;2023-05-20T00:20:28;10.50;99.90
52675;DHT22;38569;52.722;6.440;2023-05-20T00:22:54;10.60;99.90
52675;DHT22;38569;52.722;6.440;2023-05-20T00:25:20;10.60;99.90
52675;DHT22;38569;52.722;6.440;2023-05-20T00:27:46;10.60;99.90
52675;DHT22;38569;52.722;6.440;2023-05-20T00:30:12;10.60;99.90
52675;DHT22;38569;52.722;6.440;2023-05-20T00:32:38;10.60;99.90
52675;DHT22;38569;52.722;6.440;2023-05-20T00:35:04;10.60;99.90
52675;DHT22;38569;52.722;6.440;2023-05-20T00:37:30;10.60;99.90
52675;DHT22;38569;52.722;6.440;2023-05-20T00:39:56;10.60;99.90
52675;DHT22;38569;52.722;6.440;2023-05-20T00:42:22;10.50;99.90
52675;DHT22;38569;52.722;6.440;2023-05-20T00:44:49;10.50;99.90
52675;DHT22;38569;52.722;6.440;2023-05-20T00:47:17;10.50;99.90
52675;DHT22;38569;52.722;6.440;2023-05-20T00:49:48;10.50;99.90
52675;DHT22;38569;52.722;6.440;2023-05-20T00:52:15;10.50;99.90
52675;DHT22;38569;52.722;6.440;2023-05-20T00:54:40;10.50;99.90
52675;DHT22;38569;52.722;6.440;2023-05-20T00:57:07;10.50;99.90
52675;DHT22;38569;52.722;6.440;2023-05-20T00:59:36;10.50;99.90
52675;DHT22;38569;52.722;6.440;2023-05-20T01:02:02;10.50;99.90
52675;DHT22;38569;52.722;6.440;2023-05-20T01:04:29;10.60;99.90
52675;DHT22;38569;52.722;6.440;2023-05-20T01:06:55;10.60;99.90
52675;DHT22;38569;52.722;6.440;2023-05-20T01:09:23;10.70;99.90
52675;DHT22;38569;52.722;6.440;2023-05-20T01:12:12;10.70;99.90
52675;DHT22;38569;52.722;6.440;2023-05-20T01:14:49;10.80;99.90
52675;DHT22;38569;52.722;6.440;2023-05-20T01:17:18;10.90;99.90
52675;DHT22;38569;52.722;6.440;2023-05-20T01:19:46;10.90;99.90
52675;DHT22;38569;52.722;6.440;2023-05-20T01:22:14;10.90;99.90
52675;DHT22;38569;52.722;6.440;2023-05-20T01:24:41;10.80;99.90
52675;DHT22;38569;52.722;6.440;2023-05-20T01:27:08;10.90;99.90
52675;DHT22;38569;52.722;6.440;2023-05-20T01:29:39;10.90;99.90
52675;DHT22;38569;52.722;6.440;2023-05-20T01:32:08;10.90;99.90
52675;DHT22;38569;52.722;6.440;2023-05-20T01:34:36;10.90;99.90
52675;DHT22;38569;52.722;6.440;2023-05-20T01:37:04;10.90;99.90
52675;DHT22;38569;52.722;6.440;2023-05-20T01:39:33;11.00;99.90
52675;DHT22;38569;52.722;6.440;2023-05-20T01:42:01;11.00;99.90
52675;DHT22;38569;52.722;6.440;2023-05-20T01:44:27;11.00;99.90
52675;DHT22;38569;52.722;6.440;2023-05-20T01:46:53;11.00;99.90
52675;DHT22;38569;52.722;6.440;2023-05-20T01:49:19;11.00;99.90
52675;DHT22;38569;52.722;6.440;2023-05-20T01:51:44;11.00;99.90
52675;DHT22;38569;52.722;6.440;2023-05-20T01:54:10;11.00;99.90
52675;DHT22;38569;52.722;6.440;2023-05-20T01:56:36;11.00;99.90
52675;DHT22;38569;52.722;6.440;2023-05-20T01:59:01;11.10;99.90
52675;DHT22;38569;52.722;6.440;2023-05-20T02:01:27;11.10;99.90
52675;DHT22;38569;52.722;6.440;2023-05-20T02:03:53;11.10;99.90
52675;DHT22;38569;52.722;6.440;2023-05-20T02:06:18;11.10;99.90
52675;DHT22;38569;52.722;6.440;2023-05-20T02:08:44;11.00;99.90
52675;DHT22;38569;52.722;6.440;2023-05-20T02:11:10;11.10;99.90
52675;DHT22;38569;52.722;6.440;2023-05-20T02:13:35;11.10;99.90
52675;DHT22;38569;52.722;6.440;2023-05-20T02:16:01;11.00;99.90
52675;DHT22;38569;52.722;6.440;2023-05-20T02:18:27;11.10;99.90
52675;DHT22;38569;52.722;6.440;2023-05-20T02:20:52;11.10;99.90
52675;DHT22;38569;52.722;6.440;2023-05-20T02:23:18;11.10;99.90
52675;DHT22;38569;52.722;6.440;2023-05-20T02:25:44;11.00;99.90
52675;DHT22;38569;52.722;6.440;2023-05-20T02:28:10;11.00;99.90
52675;DHT22;38569;52.722;6.440;2023-05-20T02:30:37;11.00;99.90
52675;DHT22;38569;52.722;6.440;2023-05-20T02:33:03;11.00;99.90
52675;DHT22;38569;52.722;6.440;2023-05-20T02:35:28;11.00;99.90
52675;DHT22;38569;52.722;6.440;2023-05-20T02:37:54;11.00;99.90
52675;DHT22;38569;52.722;6.440;2023-05-20T02:40:20;11.00;99.90
52675;DHT22;38569;52.722;6.440;2023-05-20T02:42:46;11.10;99.90
52675;DHT22;38569;52.722;6.440;2023-05-20T02:45:11;11.10;99.90
52675;DHT22;38569;52.722;6.440;2023-05-20T02:47:37;11.10;99.90
52675;DHT22;38569;52.722;6.440;2023-05-20T02:50:03;11.10;99.90
52675;DHT22;38569;52.722;6.440;2023-05-20T02:52:29;11.10;99.90
52675;DHT22;38569;52.722;6.440;2023-05-20T02:54:54;11.10;99.90
52675;DHT22;38569;52.722;6.440;2023-05-20T02:57:20;11.10;99.90
52675;DHT22;38569;52.722;6.440;2023-05-20T02:59:46;11.10;99.90
52675;DHT22;38569;52.722;6.440;2023-05-20T03:02:12;11.10;99.90
52675;DHT22;38569;52.722;6.440;2023-05-20T03:04:38;11.10;99.90
52675;DHT22;38569;52.722;6.440;2023-05-20T03:07:08;11.10;99.90
52675;DHT22;38569;52.722;6.440;2023-05-20T03:09:34;11.10;99.90
52675;DHT22;38569;52.722;6.440;2023-05-20T03:12:00;11.10;99.90
52675;DHT22;38569;52.722;6.440;2023-05-20T03:14:26;11.10;99.90
52675;DHT22;38569;52.722;6.440;2023-05-20T03:16:53;11.10;99.90
52675;DHT22;38569;52.722;6.440;2023-05-20T03:19:20;11.10;99.90
52675;DHT22;38569;52.722;6.440;2023-05-20T03:21:46;11.00;99.90
52675;DHT22;38569;52.722;6.440;2023-05-20T03:24:12;11.00;99.90
52675;DHT22;38569;52.722;6.440;2023-05-20T03:26:37;11.00;99.90
52675;DHT22;38569;52.722;6.440;2023-05-20T03:29:08;11.00;99.90
52675;DHT22;38569;52.722;6.440;2023-05-20T03:31:34;10.90;99.90
52675;DHT22;38569;52.722;6.440;2023-05-20T03:34:01;10.90;99.90
52675;DHT22;38569;52.722;6.440;2023-05-20T03:36:26;10.90;99.90
52675;DHT22;38569;52.722;6.440;2023-05-20T03:38:53;10.90;99.90
52675;DHT22;38569;52.722;6.440;2023-05-20T03:41:18;10.80;99.90
52675;DHT22;38569;52.722;6.440;2023-05-20T03:43:44;10.90;99.90
52675;DHT22;38569;52.722;6.440;2023-05-20T03:46:10;10.90;99.90
52675;DHT22;38569;52.722;6.440;2023-05-20T03:48:35;10.90;99.90
52675;DHT22;38569;52.722;6.440;2023-05-20T03:51:01;10.80;99.90
52675;DHT22;38569;52.722;6.440;2023-05-20T03:53:27;10.80;99.90
52675;DHT22;38569;52.722;6.440;2023-05-20T03:55:52;10.80;99.90
52675;DHT22;38569;52.722;6.440;2023-05-20T03:58:19;10.70;99.90
52675;DHT22;38569;52.722;6.440;2023-05-20T04:00:47;10.70;99.90
52675;DHT22;38569;52.722;6.440;2023-05-20T04:03:13;10.70;99.90
52675;DHT22;38569;52.722;6.440;2023-05-20T04:05:40;10.70;99.90
52675;DHT22;38569;52.722;6.440;2023-05-20T04:08:06;10.60;99.90
52675;DHT22;38569;52.722;6.440;2023-05-20T04:10:31;10.70;99.90
52675;DHT22;38569;52.722;6.440;2023-05-20T04:12:57;10.70;99.90
52675;DHT22;38569;52.722;6.440;2023-05-20T04:15:23;10.80;99.90
52675;DHT22;38569;52.722;6.440;2023-05-20T04:17:50;11.00;99.90
52675;DHT22;38569;52.722;6.440;2023-05-20T04:20:17;11.30;99.90
52675;DHT22;38569;52.722;6.440;2023-05-20T04:22:46;11.60;99.90
52675;DHT22;38569;52.722;6.440;2023-05-20T04:25:12;11.90;99.90
52675;DHT22;38569;52.722;6.440;2023-05-20T04:27:38;12.20;99.90
52675;DHT22;38569;52.722;6.440;2023-05-20T04:30:05;12.60;99.90
52675;DHT22;38569;52.722;6.440;2023-05-20T04:32:31;12.80;99.90
52675;DHT22;38569;52.722;6.440;2023-05-20T04:34:58;12.70;99.90
52675;DHT22;38569;52.722;6.440;2023-05-20T04:37:27;12.50;99.90
52675;DHT22;38569;52.722;6.440;2023-05-20T04:39:52;12.60;99.90
52675;DHT22;38569;52.722;6.440;2023-05-20T04:42:18;12.50;99.90
52675;DHT22;38569;52.722;6.440;2023-05-20T04:44:46;12.70;99.90
52675;DHT22;38569;52.722;6.440;2023-05-20T04:47:13;12.90;99.90
52675;DHT22;38569;52.722;6.440;2023-05-20T04:49:39;13.00;99.90
52675;DHT22;38569;52.722;6.440;2023-05-20T04:52:05;13.30;99.90
52675;DHT22;38569;52.722;6.440;2023-05-20T04:54:31;13.30;99.90
52675;DHT22;38569;52.722;6.440;2023-05-20T04:56:57;13.10;99.90
52675;DHT22;38569;52.722;6.440;2023-05-20T04:59:23;12.90;99.90
52675;DHT22;38569;52.722;6.440;2023-05-20T05:01:49;12.60;99.90
52675;DHT22;38569;52.722;6.440;2023-05-20T05:04:14;12.40;99.90
52675;DHT22;38569;52.722;6.440;2023-05-20T05:06:40;12.10;99.90
52675;DHT22;38569;52.722;6.440;2023-05-20T05:09:06;12.10;99.90
52675;DHT22;38569;52.722;6.440;2023-05-20T05:11:32;12.00;99.90
52675;DHT22;38569;52.722;6.440;2023-05-20T05:13:58;12.00;99.90
52675;DHT22;38569;52.722;6.440;2023-05-20T05:16:24;12.00;99.90
52675;DHT22;38569;52.722;6.440;2023-05-20T05:18:50;12.00;99.90
52675;DHT22;38569;52.722;6.440;2023-05-20T05:21:16;12.10;99.90
52675;DHT22;38569;52.722;6.440;2023-05-20T05:23:41;12.10;99.90
52675;DHT22;38569;52.722;6.440;2023-05-20T05:26:07;12.10;99.90
52675;DHT22;38569;52.722;6.440;2023-05-20T05:28:33;12.20;99.90
52675;DHT22;38569;52.722;6.440;2023-05-20T05:30:59;12.20;99.90
52675;DHT22;38569;52.722;6.440;2023-05-20T05:33:26;12.20;99.90
52675;DHT22;38569;52.722;6.440;2023-05-20T05:35:52;12.20;99.90
52675;DHT22;38569;52.722;6.440;2023-05-20T05:38:18;12.30;99.90
52675;DHT22;38569;52.722;6.440;2023-05-20T05:40:44;12.40;99.90
52675;DHT22;38569;52.722;6.440;2023-05-20T05:43:10;12.40;99.90
52675;DHT22;38569;52.722;6.440;2023-05-20T05:45:35;12.40;99.90
52675;DHT22;38569;52.722;6.440;2023-05-20T05:48:01;12.40;99.90
52675;DHT22;38569;52.722;6.440;2023-05-20T05:50:27;12.50;99.90
52675;DHT22;38569;52.722;6.440;2023-05-20T05:52:52;12.60;99.90
52675;DHT22;38569;52.722;6.440;2023-05-20T05:55:18;12.60;99.90
52675;DHT22;38569;52.722;6.440;2023-05-20T05:57:44;12.60;99.90
52675;DHT22;38569;52.722;6.440;2023-05-20T06:00:10;12.70;99.90
52675;DHT22;38569;52.722;6.440;2023-05-20T06:02:36;12.70;99.90
52675;DHT22;38569;52.722;6.440;2023-05-20T06:05:02;12.80;99.90
52675;DHT22;38569;52.722;6.440;2023-05-20T06:07:28;13.00;99.90
52675;DHT22;38569;52.722;6.440;2023-05-20T06:09:54;13.00;99.90
52675;DHT22;38569;52.722;6.440;2023-05-20T06:12:20;13.10;99.90
52675;DHT22;38569;52.722;6.440;2023-05-20T06:14:46;13.20;99.90
52675;DHT22;38569;52.722;6.440;2023-05-20T06:17:12;13.30;99.90
52675;DHT22;38569;52.722;6.440;2023-05-20T06:19:38;13.40;99.90
52675;DHT22;38569;52.722;6.440;2023-05-20T06:22:03;13.50;99.90
52675;DHT22;38569;52.722;6.440;2023-05-20T06:24:29;13.60;99.90
52675;DHT22;38569;52.722;6.440;2023-05-20T06:26:55;13.70;99.90
52675;DHT22;38569;52.722;6.440;2023-05-20T06:29:21;13.80;99.90
52675;DHT22;38569;52.722;6.440;2023-05-20T06:31:47;14.00;99.90
52675;DHT22;38569;52.722;6.440;2023-05-20T06:34:13;14.80;99.90
52675;DHT22;38569;52.722;6.440;2023-05-20T06:36:38;15.70;99.90
52675;DHT22;38569;52.722;6.440;2023-05-20T06:39:04;16.60;99.90
52675;DHT22;38569;52.722;6.440;2023-05-20T06:41:35;17.40;99.90
52675;DHT22;38569;52.722;6.440;2023-05-20T06:44:01;17.90;99.90
52675;DHT22;38569;52.722;6.440;2023-05-20T06:46:27;18.40;99.90
52675;DHT22;38569;52.722;6.440;2023-05-20T06:48:53;18.40;98.70
52675;DHT22;38569;52.722;6.440;2023-05-20T06:51:18;18.50;97.90
52675;DHT22;38569;52.722;6.440;2023-05-20T06:53:44;18.80;97.40
52675;DHT22;38569;52.722;6.440;2023-05-20T06:56:09;19.40;97.50
52675;DHT22;38569;52.722;6.440;2023-05-20T06:58:35;20.20;96.50
52675;DHT22;38569;52.722;6.440;2023-05-20T07:01:01;20.60;94.50
52675;DHT22;38569;52.722;6.440;2023-05-20T07:03:26;20.10;92.20
52675;DHT22;38569;52.722;6.440;2023-05-20T07:05:52;20.40;91.70
52675;DHT22;38569;52.722;6.440;2023-05-20T07:08:18;20.40;90.20
52675;DHT22;38569;52.722;6.440;2023-05-20T07:10:44;20.30;89.80
52675;DHT22;38569;52.722;6.440;2023-05-20T07:13:10;20.30;90.60
52675;DHT22;38569;52.722;6.440;2023-05-20T07:15:36;21.00;89.90
52675;DHT22;38569;52.722;6.440;2023-05-20T07:18:02;20.70;86.60
52675;DHT22;38569;52.722;6.440;2023-05-20T07:20:28;20.70;85.90
52675;DHT22;38569;52.722;6.440;2023-05-20T07:22:54;20.50;85.00
52675;DHT22;38569;52.722;6.440;2023-05-20T07:25:19;21.00;85.40
52675;DHT22;38569;52.722;6.440;2023-05-20T07:27:45;21.40;82.80
52675;DHT22;38569;52.722;6.440;2023-05-20T07:30:11;21.80;81.30
52675;DHT22;38569;52.722;6.440;2023-05-20T07:32:37;21.80;80.80
52675;DHT22;38569;52.722;6.440;2023-05-20T07:35:02;21.90;78.80
52675;DHT22;38569;52.722;6.440;2023-05-20T07:37:28;22.10;78.40
52675;DHT22;38569;52.722;6.440;2023-05-20T07:39:54;22.40;78.00
52675;DHT22;38569;52.722;6.440;2023-05-20T07:42:20;22.30;75.00
52675;DHT22;38569;52.722;6.440;2023-05-20T07:44:46;22.00;75.10
52675;DHT22;38569;52.722;6.440;2023-05-20T07:47:13;22.10;76.60
52675;DHT22;38569;52.722;6.440;2023-05-20T07:49:39;21.90;76.30
52675;DHT22;38569;52.722;6.440;2023-05-20T07:52:04;21.60;74.90
52675;DHT22;38569;52.722;6.440;2023-05-20T07:54:30;21.80;75.90
52675;DHT22;38569;52.722;6.440;2023-05-20T07:56:56;22.40;76.50
52675;DHT22;38569;52.722;6.440;2023-05-20T07:59:22;23.00;75.40
52675;DHT22;38569;52.722;6.440;2023-05-20T08:01:48;23.30;72.70
52675;DHT22;38569;52.722;6.440;2023-05-20T08:04:14;23.50;72.50
52675;DHT22;38569;52.722;6.440;2023-05-20T08:06:39;23.40;70.80
52675;DHT22;38569;52.722;6.440;2023-05-20T08:09:05;23.30;71.60
52675;DHT22;38569;52.722;6.440;2023-05-20T08:11:31;23.00;67.30
52675;DHT22;38569;52.722;6.440;2023-05-20T08:13:57;22.60;68.50
52675;DHT22;38569;52.722;6.440;2023-05-20T08:16:23;22.20;69.00
52675;DHT22;38569;52.722;6.440;2023-05-20T08:18:48;22.40;69.70
52675;DHT22;38569;52.722;6.440;2023-05-20T08:21:14;22.70;69.60
52675;DHT22;38569;52.722;6.440;2023-05-20T08:23:40;23.30;70.60
52675;DHT22;38569;52.722;6.440;2023-05-20T08:26:06;23.50;68.20
52675;DHT22;38569;52.722;6.440;2023-05-20T08:28:32;23.30;67.30
52675;DHT22;38569;52.722;6.440;2023-05-20T08:31:00;23.60;67.30
52675;DHT22;38569;52.722;6.440;2023-05-20T08:33:26;23.60;66.60
52675;DHT22;38569;52.722;6.440;2023-05-20T08:35:51;23.80;66.40
52675;DHT22;38569;52.722;6.440;2023-05-20T08:38:17;24.10;65.30
52675;DHT22;38569;52.722;6.440;2023-05-20T08:40:43;23.90;63.70
52675;DHT22;38569;52.722;6.440;2023-05-20T08:43:09;23.50;63.30
52675;DHT22;38569;52.722;6.440;2023-05-20T08:45:37;23.80;63.80
52675;DHT22;38569;52.722;6.440;2023-05-20T08:48:03;23.90;64.60
52675;DHT22;38569;52.722;6.440;2023-05-20T08:50:32;23.80;64.00
52675;DHT22;38569;52.722;6.440;2023-05-20T08:52:58;23.20;63.10
52675;DHT22;38569;52.722;6.440;2023-05-20T08:55:45;23.20;62.00
52675;DHT22;38569;52.722;6.440;2023-05-20T08:58:12;23.20;62.80
52675;DHT22;38569;52.722;6.440;2023-05-20T09:00:39;23.10;63.30
52675;DHT22;38569;52.722;6.440;2023-05-20T09:03:06;23.10;61.80
52675;DHT22;38569;52.722;6.440;2023-05-20T09:05:32;22.90;61.90
52675;DHT22;38569;52.722;6.440;2023-05-20T09:08:10;22.60;62.00
52675;DHT22;38569;52.722;6.440;2023-05-20T09:10:37;22.80;63.00
52675;DHT22;38569;52.722;6.440;2023-05-20T09:13:04;22.70;62.70
52675;DHT22;38569;52.722;6.440;2023-05-20T09:15:31;23.10;62.50
52675;DHT22;38569;52.722;6.440;2023-05-20T09:18:01;23.30;62.60
52675;DHT22;38569;52.722;6.440;2023-05-20T09:20:28;23.30;61.60
52675;DHT22;38569;52.722;6.440;2023-05-20T09:22:59;22.90;62.40
52675;DHT22;38569;52.722;6.440;2023-05-20T09:25:26;22.80;62.00
52675;DHT22;38569;52.722;6.440;2023-05-20T09:27:52;22.30;61.00
52675;DHT22;38569;52.722;6.440;2023-05-20T09:30:18;22.10;62.30
52675;DHT22;38569;52.722;6.440;2023-05-20T09:32:44;22.00;61.70
52675;DHT22;38569;52.722;6.440;2023-05-20T09:35:13;22.30;61.70
52675;DHT22;38569;52.722;6.440;2023-05-20T09:37:42;22.20;61.00
52675;DHT22;38569;52.722;6.440;2023-05-20T09:40:11;22.40;60.20
52675;DHT22;38569;52.722;6.440;2023-05-20T09:42:51;22.20;60.60
52675;DHT22;38569;52.722;6.440;2023-05-20T09:45:17;22.30;60.50
52675;DHT22;38569;52.722;6.440;2023-05-20T09:47:44;22.20;61.20
52675;DHT22;38569;52.722;6.440;2023-05-20T09:50:11;22.10;61.10
52675;DHT22;38569;52.722;6.440;2023-05-20T09:52:38;22.50;60.30
52675;DHT22;38569;52.722;6.440;2023-05-20T09:55:05;22.60;60.30
52675;DHT22;38569;52.722;6.440;2023-05-20T09:57:33;22.60;58.60
52675;DHT22;38569;52.722;6.440;2023-05-20T09:59:59;22.40;59.00
52675;DHT22;38569;52.722;6.440;2023-05-20T10:02:26;22.10;59.30
52675;DHT22;38569;52.722;6.440;2023-05-20T10:04:53;22.40;59.40
52675;DHT22;38569;52.722;6.440;2023-05-20T10:19:26;23.20;58.60
52675;DHT22;38569;52.722;6.440;2023-05-20T10:22:10;23.70;57.50
52675;DHT22;38569;52.722;6.440;2023-05-20T10:24:41;24.10;56.60
52675;DHT22;38569;52.722;6.440;2023-05-20T10:27:09;23.90;56.40
52675;DHT22;38569;52.722;6.440;2023-05-20T10:29:49;23.90;56.50
52675;DHT22;38569;52.722;6.440;2023-05-20T10:32:28;23.10;56.70
52675;DHT22;38569;52.722;6.440;2023-05-20T10:35:00;23.20;56.90
52675;DHT22;38569;52.722;6.440;2023-05-20T10:37:27;22.70;56.40
52675;DHT22;38569;52.722;6.440;2023-05-20T10:40:10;22.40;56.70
52675;DHT22;38569;52.722;6.440;2023-05-20T10:42:36;22.10;58.90
52675;DHT22;38569;52.722;6.440;2023-05-20T10:45:03;22.40;58.40
52675;DHT22;38569;52.722;6.440;2023-05-20T10:47:30;22.70;57.80
52675;DHT22;38569;52.722;6.440;2023-05-20T10:49:56;22.80;57.70
52675;DHT22;38569;52.722;6.440;2023-05-20T10:52:23;22.70;58.40
52675;DHT22;38569;52.722;6.440;2023-05-20T10:54:56;23.50;58.00
52675;DHT22;38569;52.722;6.440;2023-05-20T10:57:26;24.40;57.40
52675;DHT22;38569;52.722;6.440;2023-05-20T10:59:52;24.40;57.10
52675;DHT22;38569;52.722;6.440;2023-05-20T11:02:19;23.70;56.80
52675;DHT22;38569;52.722;6.440;2023-05-20T11:04:48;23.00;57.60
52675;DHT22;38569;52.722;6.440;2023-05-20T11:07:27;22.60;57.90
52675;DHT22;38569;52.722;6.440;2023-05-20T11:10:06;22.90;59.60
52675;DHT22;38569;52.722;6.440;2023-05-20T11:12:32;23.40;57.70
52675;DHT22;38569;52.722;6.440;2023-05-20T11:14:58;23.80;57.60
52675;DHT22;38569;52.722;6.440;2023-05-20T11:17:24;24.10;56.30
52675;DHT22;38569;52.722;6.440;2023-05-20T11:19:50;23.80;56.50
52675;DHT22;38569;52.722;6.440;2023-05-20T11:22:15;23.70;56.10
52675;DHT22;38569;52.722;6.440;2023-05-20T11:24:41;23.80;56.60
52675;DHT22;38569;52.722;6.440;2023-05-20T11:27:07;23.60;55.70
52675;DHT22;38569;52.722;6.440;2023-05-20T11:29:33;23.00;55.90
52675;DHT22;38569;52.722;6.440;2023-05-20T11:31:59;22.80;56.40
52675;DHT22;38569;52.722;6.440;2023-05-20T11:34:31;22.80;56.30
52675;DHT22;38569;52.722;6.440;2023-05-20T11:36:58;22.80;56.50
52675;DHT22;38569;52.722;6.440;2023-05-20T11:39:24;22.90;55.50
52675;DHT22;38569;52.722;6.440;2023-05-20T11:41:52;23.30;56.40
52675;DHT22;38569;52.722;6.440;2023-05-20T11:44:19;23.60;55.50
52675;DHT22;38569;52.722;6.440;2023-05-20T11:46:46;23.80;54.70
52675;DHT22;38569;52.722;6.440;2023-05-20T11:49:13;24.30;55.00
52675;DHT22;38569;52.722;6.440;2023-05-20T11:51:39;24.80;55.00
52675;DHT22;38569;52.722;6.440;2023-05-20T11:54:06;24.90;53.80
52675;DHT22;38569;52.722;6.440;2023-05-20T11:56:33;24.50;52.90
52675;DHT22;38569;52.722;6.440;2023-05-20T11:59:02;24.60;54.00
52675;DHT22;38569;52.722;6.440;2023-05-20T12:01:34;24.90;54.10
52675;DHT22;38569;52.722;6.440;2023-05-20T12:04:03;24.50;52.90
52675;DHT22;38569;52.722;6.440;2023-05-20T12:06:30;24.30;53.40
52675;DHT22;38569;52.722;6.440;2023-05-20T12:08:57;24.50;54.50
52675;DHT22;38569;52.722;6.440;2023-05-20T12:11:23;24.60;53.70
52675;DHT22;38569;52.722;6.440;2023-05-20T12:13:48;24.50;53.30
52675;DHT22;38569;52.722;6.440;2023-05-20T12:16:14;24.80;54.10
52675;DHT22;38569;52.722;6.440;2023-05-20T12:18:40;24.80;52.80
52675;DHT22;38569;52.722;6.440;2023-05-20T12:21:06;24.80;53.00
52675;DHT22;38569;52.722;6.440;2023-05-20T12:23:31;24.50;53.40
52675;DHT22;38569;52.722;6.440;2023-05-20T12:25:58;23.90;53.60
52675;DHT22;38569;52.722;6.440;2023-05-20T12:28:24;23.80;54.60
52675;DHT22;38569;52.722;6.440;2023-05-20T12:30:50;23.80;54.00
52675;DHT22;38569;52.722;6.440;2023-05-20T12:33:16;23.50;54.20
52675;DHT22;38569;52.722;6.440;2023-05-20T12:35:42;23.30;54.20
52675;DHT22;38569;52.722;6.440;2023-05-20T12:38:09;23.30;54.20
52675;DHT22;38569;52.722;6.440;2023-05-20T12:40:35;23.50;54.40
52675;DHT22;38569;52.722;6.440;2023-05-20T12:43:03;23.90;54.60
52675;DHT22;38569;52.722;6.440;2023-05-20T12:45:29;24.40;54.10
52675;DHT22;38569;52.722;6.440;2023-05-20T12:47:55;24.80;53.90
52675;DHT22;38569;52.722;6.440;2023-05-20T12:50:22;24.50;54.20
52675;DHT22;38569;52.722;6.440;2023-05-20T12:52:48;23.70;55.00
52675;DHT22;38569;52.722;6.440;2023-05-20T12:55:14;23.60;55.60
52675;DHT22;38569;52.722;6.440;2023-05-20T12:57:40;23.50;55.70
52675;DHT22;38569;52.722;6.440;2023-05-20T13:00:08;23.30;56.10
52675;DHT22;38569;52.722;6.440;2023-05-20T13:02:35;23.40;56.50
52675;DHT22;38569;52.722;6.440;2023-05-20T13:05:01;23.20;55.90
52675;DHT22;38569;52.722;6.440;2023-05-20T13:07:26;22.90;56.90
52675;DHT22;38569;52.722;6.440;2023-05-20T13:09:52;22.50;56.40
52675;DHT22;38569;52.722;6.440;2023-05-20T13:12:18;22.20;56.90
52675;DHT22;38569;52.722;6.440;2023-05-20T13:14:44;22.10;57.40
52675;DHT22;38569;52.722;6.440;2023-05-20T13:17:10;22.30;57.70
52675;DHT22;38569;52.722;6.440;2023-05-20T13:19:36;22.30;56.50
52675;DHT22;38569;52.722;6.440;2023-05-20T13:22:03;22.20;56.80
52675;DHT22;38569;52.722;6.440;2023-05-20T13:24:30;22.20;57.50
52675;DHT22;38569;52.722;6.440;2023-05-20T13:26:56;22.10;57.30
52675;DHT22;38569;52.722;6.440;2023-05-20T13:29:22;22.10;57.60
52675;DHT22;38569;52.722;6.440;2023-05-20T13:31:47;22.30;57.10
52675;DHT22;38569;52.722;6.440;2023-05-20T13:34:13;22.50;56.60
52675;DHT22;38569;52.722;6.440;2023-05-20T13:36:39;22.50;55.80
52675;DHT22;38569;52.722;6.440;2023-05-20T13:39:05;22.60;55.80
52675;DHT22;38569;52.722;6.440;2023-05-20T13:41:31;22.40;56.10
52675;DHT22;38569;52.722;6.440;2023-05-20T13:43:57;22.50;56.60
52675;DHT22;38569;52.722;6.440;2023-05-20T13:46:23;22.30;56.50
52675;DHT22;38569;52.722;6.440;2023-05-20T13:48:49;22.50;56.60
52675;DHT22;38569;52.722;6.440;2023-05-20T13:51:15;22.30;56.70
52675;DHT22;38569;52.722;6.440;2023-05-20T13:53:41;22.20;57.00
52675;DHT22;38569;52.722;6.440;2023-05-20T13:56:06;21.90;57.10
52675;DHT22;38569;52.722;6.440;2023-05-20T13:58:35;21.80;57.50
52675;DHT22;38569;52.722;6.440;2023-05-20T14:01:02;21.90;57.80
52675;DHT22;38569;52.722;6.440;2023-05-20T14:03:29;22.10;57.40
52675;DHT22;38569;52.722;6.440;2023-05-20T14:05:55;22.10;56.40
52675;DHT22;38569;52.722;6.440;2023-05-20T14:08:21;22.10;56.90
52675;DHT22;38569;52.722;6.440;2023-05-20T14:10:47;22.10;57.20
52675;DHT22;38569;52.722;6.440;2023-05-20T14:13:13;22.10;57.10
52675;DHT22;38569;52.722;6.440;2023-05-20T14:15:39;22.10;57.40
52675;DHT22;38569;52.722;6.440;2023-05-20T14:18:05;22.20;57.60
52675;DHT22;38569;52.722;6.440;2023-05-20T14:20:30;22.20;57.80
52675;DHT22;38569;52.722;6.440;2023-05-20T14:22:56;22.30;57.90
52675;DHT22;38569;52.722;6.440;2023-05-20T14:25:22;22.00;57.00
52675;DHT22;38569;52.722;6.440;2023-05-20T14:27:48;22.00;57.40
52675;DHT22;38569;52.722;6.440;2023-05-20T14:30:14;21.60;57.20
52675;DHT22;38569;52.722;6.440;2023-05-20T14:32:40;21.60;57.50
52675;DHT22;38569;52.722;6.440;2023-05-20T14:35:06;21.60;57.10
52675;DHT22;38569;52.722;6.440;2023-05-20T14:37:32;21.70;56.90
52675;DHT22;38569;52.722;6.440;2023-05-20T14:39:58;21.50;56.90
52675;DHT22;38569;52.722;6.440;2023-05-20T14:42:24;21.60;57.20
52675;DHT22;38569;52.722;6.440;2023-05-20T14:44:50;21.60;57.60
52675;DHT22;38569;52.722;6.440;2023-05-20T14:47:15;21.70;57.50
52675;DHT22;38569;52.722;6.440;2023-05-20T14:49:45;21.60;57.20
52675;DHT22;38569;52.722;6.440;2023-05-20T14:52:10;21.70;57.80
52675;DHT22;38569;52.722;6.440;2023-05-20T14:54:36;21.90;58.30
52675;DHT22;38569;52.722;6.440;2023-05-20T14:57:05;22.10;57.40
52675;DHT22;38569;52.722;6.440;2023-05-20T14:59:31;22.00;56.50
52675;DHT22;38569;52.722;6.440;2023-05-20T15:01:57;22.00;57.30
52675;DHT22;38569;52.722;6.440;2023-05-20T15:04:23;21.80;57.20
52675;DHT22;38569;52.722;6.440;2023-05-20T15:06:49;21.80;57.10
52675;DHT22;38569;52.722;6.440;2023-05-20T15:09:15;21.80;57.40
52675;DHT22;38569;52.722;6.440;2023-05-20T15:11:41;21.60;57.60
52675;DHT22;38569;52.722;6.440;2023-05-20T15:14:09;21.50;58.00
52675;DHT22;38569;52.722;6.440;2023-05-20T15:16:35;21.50;57.70
52675;DHT22;38569;52.722;6.440;2023-05-20T15:19:01;21.50;57.60
52675;DHT22;38569;52.722;6.440;2023-05-20T15:21:27;21.60;57.60
52675;DHT22;38569;52.722;6.440;2023-05-20T15:23:53;21.70;57.70
52675;DHT22;38569;52.722;6.440;2023-05-20T15:26:19;21.30;57.60
52675;DHT22;38569;52.722;6.440;2023-05-20T15:28:46;21.30;58.40
52675;DHT22;38569;52.722;6.440;2023-05-20T15:31:11;21.40;59.10
52675;DHT22;38569;52.722;6.440;2023-05-20T15:33:37;21.40;59.60
52675;DHT22;38569;52.722;6.440;2023-05-20T15:36:03;21.20;58.80
52675;DHT22;38569;52.722;6.440;2023-05-20T15:38:29;21.30;59.30